createdAt,value
2022-08-01T00:00:46.447Z,0.00
2022-08-01T00:01:46.431Z,0.00
2022-08-01T00:02:46.603Z,0.00
2022-08-01T00:03:46.395Z,0.00
2022-08-01T00:04:46.376Z,0.00
2022-08-01T00:05:46.366Z,0.00
2022-08-01T00:06:46.342Z,0.00
2022-08-01T00:07:46.319Z,0.00
2022-08-01T00:08:46.299Z,0.00
2022-08-01T00:09:46.283Z,0.00
2022-08-01T00:10:46.260Z,0.00
2022-08-01T00:11:46.245Z,0.00
2022-08-01T00:12:46.228Z,0.00
2022-08-01T00:13:46.207Z,0.00
2022-08-01T00:14:46.187Z,0.00
2022-08-01T00:15:54.189Z,0.00
2022-08-01T00:16:46.148Z,0.00
2022-08-01T00:17:46.134Z,0.00
2022-08-01T00:18:46.115Z,0.00
2022-08-01T00:19:46.094Z,0.00
2022-08-01T00:20:46.076Z,0.00
2022-08-01T00:21:52.101Z,0.00
2022-08-01T00:22:46.037Z,0.00
2022-08-01T00:23:46.022Z,0.00
2022-08-01T00:24:46.005Z,0.00
2022-08-01T00:25:45.982Z,0.00
2022-08-01T00:26:45.963Z,0.00
2022-08-01T00:27:45.945Z,0.00
2022-08-01T00:28:45.928Z,0.00
2022-08-01T00:30:09.609Z,0.00
2022-08-01T00:30:45.890Z,0.00
2022-08-01T00:31:45.872Z,0.00
2022-08-01T00:32:45.854Z,0.00
2022-08-01T00:33:45.836Z,0.00
2022-08-01T00:34:45.815Z,0.00
2022-08-01T00:35:45.796Z,0.00
2022-08-01T00:36:45.782Z,0.00
2022-08-01T00:37:45.767Z,0.00
2022-08-01T00:38:45.739Z,0.00
2022-08-01T00:39:45.726Z,0.00
2022-08-01T00:40:45.703Z,0.00
2022-08-01T00:41:45.685Z,0.00
2022-08-01T00:42:45.665Z,0.00
2022-08-01T00:43:45.649Z,0.00
2022-08-01T00:44:45.627Z,0.00
2022-08-01T00:45:45.609Z,0.00
2022-08-01T00:46:45.593Z,0.00
2022-08-01T00:47:45.572Z,0.00
2022-08-01T00:48:45.560Z,0.00
2022-08-01T00:49:45.536Z,0.00
2022-08-01T00:50:45.515Z,0.00
2022-08-01T00:51:45.496Z,0.00
2022-08-01T00:52:51.557Z,0.00
2022-08-01T00:53:50.935Z,0.00
2022-08-01T00:54:45.442Z,0.00
2022-08-01T00:55:45.421Z,0.00
2022-08-01T00:56:45.402Z,0.00
2022-08-01T00:58:03.383Z,0.00
2022-08-01T00:58:45.364Z,0.00
2022-08-01T00:59:45.347Z,0.00
2022-08-01T01:00:53.082Z,0.00
2022-08-01T01:01:46.542Z,0.00
2022-08-01T01:02:45.293Z,0.00
2022-08-01T01:03:58.507Z,0.00
2022-08-01T01:04:45.255Z,0.00
2022-08-01T01:05:45.232Z,0.00
2022-08-01T01:06:45.215Z,0.00
2022-08-01T01:07:50.063Z,0.00
2022-08-01T01:08:45.178Z,0.00
2022-08-01T01:09:45.161Z,0.00
2022-08-01T01:10:45.140Z,0.00
2022-08-01T01:11:45.121Z,0.00
2022-08-01T01:12:49.837Z,0.00
2022-08-01T01:13:50.252Z,0.00
2022-08-01T01:14:45.064Z,0.00
2022-08-01T01:15:45.045Z,0.00
2022-08-01T01:16:45.025Z,0.00
2022-08-01T01:17:51.257Z,0.00
2022-08-01T01:18:44.992Z,0.00
2022-08-01T01:19:44.967Z,0.00
2022-08-01T01:20:44.953Z,0.00
2022-08-01T01:21:44.931Z,0.00
2022-08-01T01:22:44.912Z,0.00
2022-08-01T01:23:44.892Z,0.00
2022-08-01T01:24:44.873Z,0.00
2022-08-01T01:25:44.853Z,0.00
2022-08-01T01:26:44.837Z,0.00
2022-08-01T01:27:44.818Z,0.00
2022-08-01T01:28:44.801Z,0.00
2022-08-01T01:30:00.316Z,0.00
2022-08-01T01:30:44.759Z,0.00
2022-08-01T01:31:44.738Z,0.00
2022-08-01T01:32:44.723Z,0.00
2022-08-01T01:33:47.082Z,0.00
2022-08-01T01:34:44.685Z,0.00
2022-08-01T01:35:44.664Z,0.00
2022-08-01T01:36:44.647Z,0.00
2022-08-01T01:37:44.625Z,0.00
2022-08-01T01:38:44.609Z,0.00
2022-08-01T01:39:45.167Z,0.00
2022-08-01T01:40:44.567Z,0.00
2022-08-01T01:41:44.552Z,0.00
2022-08-01T01:42:44.531Z,0.00
2022-08-01T01:43:44.513Z,0.00
2022-08-01T01:44:44.498Z,0.00
2022-08-01T01:45:44.473Z,0.00
2022-08-01T01:46:44.456Z,0.00
2022-08-01T01:47:44.435Z,0.00
2022-08-01T01:48:44.417Z,0.00
2022-08-01T01:49:44.397Z,0.00
2022-08-01T01:50:44.385Z,0.00
2022-08-01T01:51:57.401Z,0.00
2022-08-01T01:52:44.342Z,0.00
2022-08-01T01:53:44.321Z,0.00
2022-08-01T01:54:44.303Z,0.00
2022-08-01T01:55:48.961Z,0.00
2022-08-01T01:56:44.265Z,0.00
2022-08-01T01:57:44.242Z,0.00
2022-08-01T01:58:44.225Z,0.00
2022-08-01T01:59:44.228Z,0.00
2022-08-01T02:00:44.191Z,0.00
2022-08-01T02:02:05.429Z,0.00
2022-08-01T02:02:44.309Z,0.00
2022-08-01T02:03:44.134Z,0.00
2022-08-01T02:04:44.115Z,0.00
2022-08-01T02:05:44.093Z,0.00
2022-08-01T02:06:44.076Z,0.00
2022-08-01T02:07:44.055Z,0.00
2022-08-01T02:08:44.040Z,0.00
2022-08-01T02:09:44.016Z,0.00
2022-08-01T02:10:43.998Z,0.00
2022-08-01T02:12:07.621Z,0.00
2022-08-01T02:12:43.969Z,0.00
2022-08-01T02:13:43.942Z,0.00
2022-08-01T02:14:43.924Z,0.00
2022-08-01T02:15:59.221Z,0.00
2022-08-01T02:16:43.888Z,0.00
2022-08-01T02:17:43.869Z,0.00
2022-08-01T02:18:43.850Z,0.00
2022-08-01T02:19:43.828Z,0.00
2022-08-01T02:20:43.813Z,0.00
2022-08-01T02:21:43.790Z,0.00
2022-08-01T02:22:43.777Z,0.00
2022-08-01T02:23:43.756Z,0.00
2022-08-01T02:24:43.736Z,0.00
2022-08-01T02:26:10.588Z,0.00
2022-08-01T02:26:43.700Z,0.00
2022-08-01T02:27:43.680Z,0.00
2022-08-01T02:28:43.664Z,0.00
2022-08-01T02:29:43.642Z,0.00
2022-08-01T02:30:43.624Z,0.00
2022-08-01T02:31:43.602Z,0.00
2022-08-01T02:32:43.592Z,0.00
2022-08-01T02:33:43.574Z,0.00
2022-08-01T02:34:43.548Z,0.00
2022-08-01T02:36:29.705Z,0.00
2022-08-01T02:36:43.514Z,0.00
2022-08-01T02:37:45.090Z,0.00
2022-08-01T02:38:43.474Z,0.00
2022-08-01T02:39:43.455Z,0.00
2022-08-01T02:40:43.437Z,0.00
2022-08-01T02:41:43.415Z,0.00
2022-08-01T02:42:43.399Z,0.00
2022-08-01T02:43:43.377Z,0.00
2022-08-01T02:44:43.361Z,0.00
2022-08-01T02:45:43.341Z,0.00
2022-08-01T02:46:43.323Z,0.00
2022-08-01T02:47:43.308Z,0.00
2022-08-01T02:48:43.285Z,0.00
2022-08-01T02:49:43.266Z,0.00
2022-08-01T02:50:43.250Z,0.00
2022-08-01T02:51:43.229Z,0.00
2022-08-01T02:52:43.215Z,0.00
2022-08-01T02:53:44.640Z,0.00
2022-08-01T02:54:43.173Z,0.00
2022-08-01T02:55:43.154Z,0.00
2022-08-01T02:56:43.138Z,0.00
2022-08-01T02:57:52.614Z,0.00
2022-08-01T02:58:43.101Z,0.00
2022-08-01T02:59:43.087Z,0.00
2022-08-01T03:00:43.058Z,0.00
2022-08-01T03:01:43.064Z,0.00
2022-08-01T03:02:43.021Z,0.00
2022-08-01T03:03:43.001Z,0.00
2022-08-01T03:04:42.985Z,0.00
2022-08-01T03:05:42.963Z,0.00
2022-08-01T03:06:45.238Z,0.00
2022-08-01T03:07:42.927Z,0.00
2022-08-01T03:08:42.915Z,0.00
2022-08-01T03:09:42.888Z,0.00
2022-08-01T03:10:42.871Z,0.00
2022-08-01T03:11:42.853Z,0.00
2022-08-01T03:12:42.836Z,0.00
2022-08-01T03:13:42.813Z,0.00
2022-08-01T03:14:42.795Z,0.00
2022-08-01T03:15:42.778Z,0.00
2022-08-01T03:16:42.761Z,0.00
2022-08-01T03:17:42.738Z,0.00
2022-08-01T03:18:42.721Z,0.00
2022-08-01T03:19:42.700Z,0.00
2022-08-01T03:20:42.688Z,0.00
2022-08-01T03:21:42.661Z,0.00
2022-08-01T03:22:42.648Z,0.00
2022-08-01T03:23:42.626Z,0.00
2022-08-01T03:24:42.613Z,0.00
2022-08-01T03:25:42.591Z,0.00
2022-08-01T03:26:42.568Z,0.00
2022-08-01T03:27:42.549Z,0.00
2022-08-01T03:28:42.532Z,0.00
2022-08-01T03:29:42.511Z,0.00
2022-08-01T03:30:42.499Z,0.00
2022-08-01T03:31:42.477Z,0.00
2022-08-01T03:32:42.455Z,0.00
2022-08-01T03:33:42.435Z,0.00
2022-08-01T03:34:42.420Z,0.00
2022-08-01T03:35:42.403Z,0.00
2022-08-01T03:36:42.378Z,0.00
2022-08-01T03:37:59.956Z,0.00
2022-08-01T03:38:42.341Z,0.00
2022-08-01T03:39:42.330Z,0.00
2022-08-01T03:40:42.305Z,0.00
2022-08-01T03:41:42.283Z,0.00
2022-08-01T03:42:42.270Z,0.00
2022-08-01T03:43:42.246Z,0.00
2022-08-01T03:44:42.228Z,0.00
2022-08-01T03:45:42.216Z,0.00
2022-08-01T03:46:42.192Z,0.00
2022-08-01T03:47:44.544Z,0.00
2022-08-01T03:48:42.156Z,0.00
2022-08-01T03:49:42.133Z,0.00
2022-08-01T03:50:42.114Z,0.00
2022-08-01T03:51:42.097Z,0.00
2022-08-01T03:52:42.078Z,0.00
2022-08-01T03:53:42.527Z,0.00
2022-08-01T03:54:42.040Z,0.00
2022-08-01T03:55:42.025Z,0.00
2022-08-01T03:56:42.004Z,0.00
2022-08-01T03:57:41.982Z,0.00
2022-08-01T03:58:41.963Z,0.00
2022-08-01T03:59:41.945Z,0.00
2022-08-01T04:00:41.929Z,0.00
2022-08-01T04:01:41.993Z,0.00
2022-08-01T04:02:41.890Z,0.00
2022-08-01T04:03:43.096Z,0.00
2022-08-01T04:04:41.855Z,0.00
2022-08-01T04:05:41.830Z,0.00
2022-08-01T04:06:41.816Z,0.00
2022-08-01T04:07:41.791Z,0.00
2022-08-01T04:08:41.774Z,0.00
2022-08-01T04:09:41.754Z,0.00
2022-08-01T04:10:41.736Z,0.00
2022-08-01T04:11:41.717Z,0.00
2022-08-01T04:12:41.701Z,0.00
2022-08-01T04:13:44.385Z,0.00
2022-08-01T04:14:41.661Z,0.00
2022-08-01T04:15:41.642Z,0.00
2022-08-01T04:16:41.624Z,0.00
2022-08-01T04:17:41.603Z,0.00
2022-08-01T04:18:41.588Z,0.00
2022-08-01T04:19:41.565Z,0.00
2022-08-01T04:20:41.549Z,0.00
2022-08-01T04:21:41.526Z,0.00
2022-08-01T04:22:41.510Z,0.00
2022-08-01T04:23:41.491Z,0.00
2022-08-01T04:24:41.474Z,0.00
2022-08-01T04:25:41.451Z,0.00
2022-08-01T04:26:41.434Z,0.00
2022-08-01T04:27:49.829Z,0.00
2022-08-01T04:28:41.399Z,0.00
2022-08-01T04:29:41.376Z,0.00
2022-08-01T04:30:41.360Z,0.00
2022-08-01T04:31:41.347Z,0.00
2022-08-01T04:32:41.322Z,0.00
2022-08-01T04:33:41.300Z,0.00
2022-08-01T04:34:41.283Z,0.00
2022-08-01T04:36:04.009Z,0.00
2022-08-01T04:36:41.255Z,0.00
2022-08-01T04:37:41.222Z,0.00
2022-08-01T04:38:41.206Z,0.00
2022-08-01T04:39:50.155Z,0.00
2022-08-01T04:40:41.174Z,0.00
2022-08-01T04:41:41.155Z,0.00
2022-08-01T04:42:41.136Z,0.00
2022-08-01T04:43:42.984Z,0.00
2022-08-01T04:44:41.093Z,0.00
2022-08-01T04:45:41.070Z,0.00
2022-08-01T04:46:41.056Z,0.00
2022-08-01T04:47:41.038Z,0.00
2022-08-01T04:48:41.018Z,0.00
2022-08-01T04:49:49.353Z,0.00
2022-08-01T04:50:40.978Z,0.00
2022-08-01T04:51:40.960Z,0.00
2022-08-01T04:52:40.939Z,0.00
2022-08-01T04:53:40.922Z,0.00
2022-08-01T04:54:40.901Z,0.00
2022-08-01T04:55:40.882Z,0.00
2022-08-01T04:56:40.863Z,0.00
2022-08-01T04:57:40.847Z,0.00
2022-08-01T04:58:40.828Z,0.00
2022-08-01T04:59:40.815Z,0.00
2022-08-01T05:00:40.790Z,0.00
2022-08-01T05:01:40.898Z,0.00
2022-08-01T05:02:40.748Z,0.00
2022-08-01T05:03:40.732Z,0.00
2022-08-01T05:04:40.714Z,0.00
2022-08-01T05:05:40.703Z,0.00
2022-08-01T05:06:40.674Z,0.00
2022-08-01T05:07:44.135Z,0.00
2022-08-01T05:08:40.637Z,0.00
2022-08-01T05:09:40.614Z,0.00
2022-08-01T05:10:40.598Z,0.00
2022-08-01T05:11:40.577Z,0.00
2022-08-01T05:12:40.559Z,0.00
2022-08-01T05:13:40.540Z,0.00
2022-08-01T05:14:40.524Z,0.00
2022-08-01T05:15:40.505Z,0.00
2022-08-01T05:16:40.483Z,0.00
2022-08-01T05:17:40.466Z,0.00
2022-08-01T05:18:40.445Z,0.00
2022-08-01T05:19:40.427Z,0.00
2022-08-01T05:20:40.409Z,0.00
2022-08-01T05:21:40.391Z,0.00
2022-08-01T05:22:40.380Z,0.00
2022-08-01T05:23:42.848Z,0.00
2022-08-01T05:24:40.390Z,0.00
2022-08-01T05:25:57.438Z,0.00
2022-08-01T05:26:40.292Z,0.00
2022-08-01T05:27:40.275Z,0.00
2022-08-01T05:28:40.258Z,5.63
2022-08-01T05:29:44.419Z,5.63
2022-08-01T05:30:40.217Z,5.63
2022-08-01T05:31:40.200Z,5.63
2022-08-01T05:32:40.182Z,5.63
2022-08-01T05:33:40.194Z,5.63
2022-08-01T05:34:40.143Z,5.63
2022-08-01T05:35:48.748Z,5.63
2022-08-01T05:36:40.102Z,5.63
2022-08-01T05:37:40.082Z,5.63
2022-08-01T05:38:40.063Z,5.63
2022-08-01T05:39:40.046Z,5.63
2022-08-01T05:40:40.025Z,5.63
2022-08-01T05:41:40.008Z,5.63
2022-08-01T05:42:39.988Z,5.63
2022-08-01T05:43:39.970Z,5.63
2022-08-01T05:44:39.950Z,5.63
2022-08-01T05:45:39.937Z,5.63
2022-08-01T05:46:39.913Z,5.63
2022-08-01T05:47:43.044Z,5.63
2022-08-01T05:48:39.875Z,5.63
2022-08-01T05:49:39.858Z,5.63
2022-08-01T05:50:39.836Z,5.63
2022-08-01T05:51:39.818Z,5.63
2022-08-01T05:52:39.801Z,5.63
2022-08-01T05:53:39.783Z,5.63
2022-08-01T05:54:39.760Z,5.63
2022-08-01T05:55:39.744Z,5.63
2022-08-01T05:56:39.724Z,5.63
2022-08-01T05:57:40.728Z,5.63
2022-08-01T05:58:39.688Z,5.63
2022-08-01T05:59:39.667Z,11.25
2022-08-01T06:00:39.647Z,11.25
2022-08-01T06:01:39.644Z,11.25
2022-08-01T06:02:39.655Z,11.25
2022-08-01T06:03:39.592Z,11.25
2022-08-01T06:04:39.573Z,11.25
2022-08-01T06:05:39.551Z,11.25
2022-08-01T06:06:39.532Z,5.63
2022-08-01T06:07:39.521Z,5.63
2022-08-01T06:08:39.498Z,5.63
2022-08-01T06:09:39.477Z,5.63
2022-08-01T06:10:39.456Z,5.63
2022-08-01T06:11:39.439Z,5.63
2022-08-01T06:12:39.427Z,5.63
2022-08-01T06:13:48.360Z,5.63
2022-08-01T06:14:39.381Z,5.63
2022-08-01T06:15:39.366Z,5.63
2022-08-01T06:16:39.346Z,5.63
2022-08-01T06:17:39.327Z,5.63
2022-08-01T06:18:39.311Z,5.63
2022-08-01T06:19:39.286Z,5.63
2022-08-01T06:20:39.274Z,5.63
2022-08-01T06:21:39.247Z,5.63
2022-08-01T06:22:39.232Z,5.63
2022-08-01T06:23:39.210Z,5.63
2022-08-01T06:24:39.193Z,5.63
2022-08-01T06:25:39.175Z,5.63
2022-08-01T06:26:39.154Z,5.63
2022-08-01T06:27:39.141Z,5.63
2022-08-01T06:28:39.119Z,5.63
2022-08-01T06:29:39.115Z,5.63
2022-08-01T06:30:39.085Z,5.63
2022-08-01T06:31:39.066Z,5.63
2022-08-01T06:32:39.049Z,5.63
2022-08-01T06:33:39.024Z,5.63
2022-08-01T06:34:39.004Z,5.63
2022-08-01T06:35:38.985Z,5.63
2022-08-01T06:36:38.967Z,5.63
2022-08-01T06:37:38.948Z,5.63
2022-08-01T06:38:38.929Z,5.63
2022-08-01T06:39:38.911Z,5.63
2022-08-01T06:40:38.897Z,0.00
2022-08-01T06:41:38.871Z,5.63
2022-08-01T06:42:38.853Z,5.63
2022-08-01T06:43:38.838Z,5.63
2022-08-01T06:44:38.815Z,5.63
2022-08-01T06:45:38.795Z,5.63
2022-08-01T06:46:38.777Z,0.00
2022-08-01T06:47:38.757Z,0.00
2022-08-01T06:48:38.739Z,0.00
2022-08-01T06:49:38.814Z,0.00
2022-08-01T06:50:38.701Z,5.63
2022-08-01T06:51:38.683Z,5.63
2022-08-01T06:52:38.663Z,5.63
2022-08-01T06:53:38.652Z,5.63
2022-08-01T06:54:38.636Z,5.63
2022-08-01T06:55:38.612Z,5.63
2022-08-01T06:56:38.595Z,5.63
2022-08-01T06:57:38.569Z,5.63
2022-08-01T06:58:38.548Z,5.63
2022-08-01T06:59:38.530Z,5.63
2022-08-01T07:00:38.579Z,5.63
2022-08-01T07:01:38.582Z,5.63
2022-08-01T07:02:38.474Z,5.63
2022-08-01T07:03:54.267Z,5.63
2022-08-01T07:04:38.436Z,5.63
2022-08-01T07:05:38.419Z,5.63
2022-08-01T07:06:38.398Z,5.63
2022-08-01T07:07:38.380Z,5.63
2022-08-01T07:08:38.360Z,5.63
2022-08-01T07:09:38.341Z,5.63
2022-08-01T07:10:38.321Z,5.63
2022-08-01T07:11:38.301Z,11.25
2022-08-01T07:12:38.282Z,11.25
2022-08-01T07:13:45.577Z,11.25
2022-08-01T07:14:38.242Z,11.25
2022-08-01T07:15:38.226Z,16.88
2022-08-01T07:16:38.206Z,16.88
2022-08-01T07:17:38.195Z,16.88
2022-08-01T07:18:38.168Z,16.88
2022-08-01T07:19:38.507Z,16.88
2022-08-01T07:20:50.275Z,16.88
2022-08-01T07:21:38.911Z,16.88
2022-08-01T07:22:38.096Z,16.88
2022-08-01T07:23:38.075Z,16.88
2022-08-01T07:24:38.055Z,16.88
2022-08-01T07:25:38.036Z,16.88
2022-08-01T07:26:38.016Z,11.25
2022-08-01T07:27:37.999Z,16.88
2022-08-01T07:28:37.982Z,16.88
2022-08-01T07:29:37.962Z,16.88
2022-08-01T07:30:37.941Z,11.25
2022-08-01T07:31:37.922Z,11.25
2022-08-01T07:32:37.907Z,11.25
2022-08-01T07:33:47.681Z,11.25
2022-08-01T07:34:37.868Z,11.25
2022-08-01T07:35:37.847Z,11.25
2022-08-01T07:36:37.827Z,11.25
2022-08-01T07:37:46.172Z,11.25
2022-08-01T07:38:37.790Z,11.25
2022-08-01T07:39:37.776Z,11.25
2022-08-01T07:40:37.754Z,11.25
2022-08-01T07:41:52.664Z,11.25
2022-08-01T07:42:37.718Z,11.25
2022-08-01T07:43:37.697Z,11.25
2022-08-01T07:44:37.684Z,16.88
2022-08-01T07:45:37.656Z,16.88
2022-08-01T07:46:37.637Z,16.88
2022-08-01T07:47:37.622Z,16.88
2022-08-01T07:48:37.600Z,16.88
2022-08-01T07:49:40.376Z,16.88
2022-08-01T07:50:37.563Z,22.50
2022-08-01T07:51:37.545Z,22.50
2022-08-01T07:52:37.528Z,22.50
2022-08-01T07:53:37.507Z,22.50
2022-08-01T07:54:37.497Z,22.50
2022-08-01T07:55:37.483Z,22.50
2022-08-01T07:56:37.450Z,22.50
2022-08-01T07:57:37.436Z,22.50
2022-08-01T07:58:37.411Z,22.50
2022-08-01T07:59:37.394Z,22.50
2022-08-01T08:00:37.376Z,22.50
2022-08-01T08:01:37.430Z,22.50
2022-08-01T08:02:37.345Z,22.50
2022-08-01T08:03:37.324Z,28.13
2022-08-01T08:04:37.304Z,28.13
2022-08-01T08:05:59.010Z,33.75
2022-08-01T08:06:37.262Z,39.38
2022-08-01T08:07:37.253Z,50.63
2022-08-01T08:08:37.229Z,39.38
2022-08-01T08:09:38.070Z,56.25
2022-08-01T08:10:37.191Z,39.38
2022-08-01T08:11:37.173Z,39.38
2022-08-01T08:12:37.154Z,39.38
2022-08-01T08:13:37.134Z,39.38
2022-08-01T08:14:37.115Z,28.13
2022-08-01T08:15:37.098Z,22.50
2022-08-01T08:16:37.085Z,22.50
2022-08-01T08:17:37.062Z,22.50
2022-08-01T08:18:37.042Z,16.88
2022-08-01T08:19:38.455Z,11.25
2022-08-01T08:20:37.007Z,5.63
2022-08-01T08:21:36.988Z,5.63
2022-08-01T08:22:36.968Z,5.63
2022-08-01T08:23:42.941Z,0.00
2022-08-01T08:24:36.938Z,0.00
2022-08-01T08:25:36.916Z,5.63
2022-08-01T08:26:36.896Z,5.63
2022-08-01T08:27:37.610Z,5.63
2022-08-01T08:28:36.861Z,5.63
2022-08-01T08:29:36.892Z,5.63
2022-08-01T08:30:36.822Z,5.63
2022-08-01T08:31:51.474Z,5.63
2022-08-01T08:32:36.793Z,5.63
2022-08-01T08:33:36.769Z,5.63
2022-08-01T08:34:36.755Z,5.63
2022-08-01T08:35:40.149Z,5.63
2022-08-01T08:36:36.713Z,5.63
2022-08-01T08:37:38.022Z,5.63
2022-08-01T08:38:36.677Z,5.63
2022-08-01T08:39:41.829Z,5.63
2022-08-01T08:40:36.643Z,5.63
2022-08-01T08:41:37.818Z,5.63
2022-08-01T08:42:36.604Z,5.63
2022-08-01T08:43:36.588Z,5.63
2022-08-01T08:44:36.566Z,11.25
2022-08-01T08:45:58.991Z,11.25
2022-08-01T08:46:36.527Z,11.25
2022-08-01T08:47:36.509Z,11.25
2022-08-01T08:48:36.492Z,5.63
2022-08-01T08:49:36.693Z,5.63
2022-08-01T08:50:36.455Z,5.63
2022-08-01T08:51:36.433Z,5.63
2022-08-01T08:52:36.416Z,5.63
2022-08-01T08:53:36.397Z,5.63
2022-08-01T08:54:36.380Z,5.63
2022-08-01T08:55:55.371Z,5.63
2022-08-01T08:56:36.342Z,5.63
2022-08-01T08:57:36.323Z,5.63
2022-08-01T08:58:36.304Z,5.63
2022-08-01T08:59:36.288Z,5.63
2022-08-01T09:00:36.267Z,5.63
2022-08-01T09:01:36.317Z,5.63
2022-08-01T09:02:36.244Z,5.63
2022-08-01T09:03:36.293Z,5.63
2022-08-01T09:04:36.194Z,11.25
2022-08-01T09:05:38.943Z,11.25
2022-08-01T09:06:36.159Z,11.25
2022-08-01T09:07:36.137Z,11.25
2022-08-01T09:08:36.120Z,11.25
2022-08-01T09:09:36.100Z,11.25
2022-08-01T09:10:36.087Z,11.25
2022-08-01T09:11:36.060Z,5.63
2022-08-01T09:12:36.042Z,5.63
2022-08-01T09:13:36.028Z,5.63
2022-08-01T09:14:36.004Z,5.63
2022-08-01T09:15:35.985Z,11.25
2022-08-01T09:16:35.968Z,11.25
2022-08-01T09:17:35.946Z,11.25
2022-08-01T09:18:35.931Z,11.25
2022-08-01T09:19:40.122Z,11.25
2022-08-01T09:20:35.893Z,11.25
2022-08-01T09:21:35.870Z,11.25
2022-08-01T09:22:35.856Z,11.25
2022-08-01T09:23:35.845Z,11.25
2022-08-01T09:24:35.813Z,16.88
2022-08-01T09:25:45.923Z,16.88
2022-08-01T09:26:35.774Z,16.88
2022-08-01T09:27:35.757Z,11.25
2022-08-01T09:28:35.737Z,11.25
2022-08-01T09:29:38.319Z,5.63
2022-08-01T09:30:35.699Z,5.63
2022-08-01T09:31:38.186Z,5.63
2022-08-01T09:32:36.217Z,5.63
2022-08-01T09:33:37.053Z,5.63
2022-08-01T09:34:35.626Z,5.63
2022-08-01T09:35:36.354Z,5.63
2022-08-01T09:36:35.589Z,11.25
2022-08-01T09:37:37.474Z,11.25
2022-08-01T09:38:35.552Z,11.25
2022-08-01T09:39:35.531Z,11.25
2022-08-01T09:40:35.513Z,11.25
2022-08-01T09:41:37.926Z,11.25
2022-08-01T09:42:35.482Z,11.25
2022-08-01T09:43:35.454Z,11.25
2022-08-01T09:44:42.836Z,11.25
2022-08-01T09:45:41.788Z,11.25
2022-08-01T09:46:35.399Z,11.25
2022-08-01T09:47:35.381Z,11.25
2022-08-01T09:48:35.362Z,11.25
2022-08-01T09:49:49.661Z,11.25
2022-08-01T09:50:35.327Z,11.25
2022-08-01T09:51:59.116Z,11.25
2022-08-01T09:52:35.287Z,5.63
2022-08-01T09:53:38.007Z,5.63
2022-08-01T09:54:35.245Z,5.63
2022-08-01T09:55:35.227Z,5.63
2022-08-01T09:56:35.211Z,5.63
2022-08-01T09:57:35.204Z,5.63
2022-08-01T09:58:35.171Z,11.25
2022-08-01T09:59:56.766Z,11.25
2022-08-01T10:00:45.216Z,11.25
2022-08-01T10:01:37.203Z,11.25
2022-08-01T10:02:35.097Z,11.25
2022-08-01T10:03:35.163Z,16.88
2022-08-01T10:04:35.060Z,16.88
2022-08-01T10:05:36.897Z,16.88
2022-08-01T10:06:35.027Z,16.88
2022-08-01T10:07:42.690Z,16.88
2022-08-01T10:08:34.986Z,16.88
2022-08-01T10:09:35.906Z,22.50
2022-08-01T10:10:34.944Z,22.50
2022-08-01T10:11:35.884Z,22.50
2022-08-01T10:12:34.903Z,22.50
2022-08-01T10:13:36.522Z,22.50
2022-08-01T10:14:34.866Z,22.50
2022-08-01T10:15:37.436Z,22.50
2022-08-01T10:16:34.826Z,22.50
2022-08-01T10:17:50.015Z,22.50
2022-08-01T10:18:34.791Z,22.50
2022-08-01T10:19:34.768Z,22.50
2022-08-01T10:20:34.751Z,22.50
2022-08-01T10:21:56.213Z,22.50
2022-08-01T10:22:35.640Z,22.50
2022-08-01T10:23:40.603Z,16.88
2022-08-01T10:24:34.679Z,11.25
2022-08-01T10:25:43.133Z,11.25
2022-08-01T10:26:34.635Z,5.63
2022-08-01T10:27:38.329Z,5.63
2022-08-01T10:28:34.599Z,5.63
2022-08-01T10:29:45.950Z,5.63
2022-08-01T10:30:34.561Z,11.25
2022-08-01T10:31:34.545Z,11.25
2022-08-01T10:32:34.526Z,11.25
2022-08-01T10:33:50.734Z,16.88
2022-08-01T10:34:34.484Z,16.88
2022-08-01T10:35:46.873Z,16.88
2022-08-01T10:36:34.445Z,16.88
2022-08-01T10:37:34.425Z,22.50
2022-08-01T10:38:34.409Z,22.50
2022-08-01T10:39:34.393Z,22.50
2022-08-01T10:40:34.369Z,22.50
2022-08-01T10:41:34.354Z,22.50
2022-08-01T10:42:34.330Z,22.50
2022-08-01T10:43:35.497Z,22.50
2022-08-01T10:44:34.294Z,22.50
2022-08-01T10:45:34.331Z,22.50
2022-08-01T10:46:34.255Z,22.50
2022-08-01T10:47:49.909Z,22.50
2022-08-01T10:48:34.217Z,28.13
2022-08-01T10:49:34.264Z,28.13
2022-08-01T10:50:34.209Z,28.13
2022-08-01T10:51:52.087Z,28.13
2022-08-01T10:52:39.169Z,28.13
2022-08-01T10:53:42.420Z,28.13
2022-08-01T10:54:34.107Z,28.13
2022-08-01T10:55:34.091Z,28.13
2022-08-01T10:56:34.065Z,28.13
2022-08-01T10:57:34.043Z,28.13
2022-08-01T10:58:39.880Z,28.13
2022-08-01T10:59:58.911Z,28.13
2022-08-01T11:00:33.986Z,28.13
2022-08-01T11:01:34.080Z,22.50
2022-08-01T11:02:33.952Z,22.50
2022-08-01T11:03:55.742Z,22.50
2022-08-01T11:04:33.913Z,22.50
2022-08-01T11:05:33.895Z,22.50
2022-08-01T11:06:33.887Z,22.50
2022-08-01T11:07:34.203Z,22.50
2022-08-01T11:08:33.837Z,22.50
2022-08-01T11:09:37.235Z,22.50
2022-08-01T11:10:33.797Z,28.13
2022-08-01T11:11:37.506Z,28.13
2022-08-01T11:12:33.762Z,28.13
2022-08-01T11:13:33.740Z,28.13
2022-08-01T11:14:53.947Z,28.13
2022-08-01T11:15:33.702Z,28.13
2022-08-01T11:16:33.695Z,28.13
2022-08-01T11:17:38.039Z,28.13
2022-08-01T11:18:33.646Z,28.13
2022-08-01T11:19:33.634Z,28.13
2022-08-01T11:20:33.624Z,28.13
2022-08-01T11:21:57.997Z,28.13
2022-08-01T11:22:33.574Z,22.50
2022-08-01T11:23:36.173Z,22.50
2022-08-01T11:24:33.536Z,22.50
2022-08-01T11:26:05.344Z,22.50
2022-08-01T11:26:33.497Z,22.50
2022-08-01T11:27:33.708Z,22.50
2022-08-01T11:28:36.917Z,22.50
2022-08-01T11:29:33.439Z,22.50
2022-08-01T11:30:33.422Z,22.50
2022-08-01T11:31:37.813Z,22.50
2022-08-01T11:32:52.627Z,22.50
2022-08-01T11:33:33.369Z,22.50
2022-08-01T11:34:33.352Z,22.50
2022-08-01T11:35:33.328Z,28.13
2022-08-01T11:36:57.486Z,28.13
2022-08-01T11:37:33.324Z,28.13
2022-08-01T11:38:33.277Z,28.13
2022-08-01T11:39:38.270Z,22.50
2022-08-01T11:40:33.238Z,22.50
2022-08-01T11:41:38.563Z,22.50
2022-08-01T11:42:33.201Z,22.50
2022-08-01T11:43:33.189Z,22.50
2022-08-01T11:44:33.164Z,22.50
2022-08-01T11:45:33.144Z,22.50
2022-08-01T11:46:33.137Z,22.50
2022-08-01T11:47:36.488Z,22.50
2022-08-01T11:48:33.091Z,22.50
2022-08-01T11:49:33.107Z,22.50
2022-08-01T11:50:33.071Z,22.50
2022-08-01T11:51:33.030Z,28.13
2022-08-01T11:52:33.011Z,28.13
2022-08-01T11:53:32.992Z,28.13
2022-08-01T11:54:35.254Z,28.13
2022-08-01T11:55:32.958Z,22.50
2022-08-01T11:56:32.939Z,22.50
2022-08-01T11:57:34.437Z,22.50
2022-08-01T11:58:32.901Z,22.50
2022-08-01T11:59:38.001Z,22.50
2022-08-01T12:00:32.862Z,22.50
2022-08-01T12:01:32.844Z,22.50
2022-08-01T12:02:32.904Z,22.50
2022-08-01T12:03:33.389Z,22.50
2022-08-01T12:04:32.813Z,22.50
2022-08-01T12:05:32.770Z,22.50
2022-08-01T12:06:32.755Z,22.50
2022-08-01T12:07:32.916Z,22.50
2022-08-01T12:08:32.714Z,22.50
2022-08-01T12:09:32.696Z,22.50
2022-08-01T12:10:32.687Z,22.50
2022-08-01T12:11:37.153Z,22.50
2022-08-01T12:12:32.642Z,22.50
2022-08-01T12:13:32.623Z,22.50
2022-08-01T12:14:32.609Z,22.50
2022-08-01T12:15:32.585Z,22.50
2022-08-01T12:16:33.400Z,28.13
2022-08-01T12:17:32.581Z,28.13
2022-08-01T12:18:32.532Z,33.75
2022-08-01T12:19:32.515Z,39.38
2022-08-01T12:20:32.560Z,39.38
2022-08-01T12:21:32.476Z,39.38
2022-08-01T12:22:32.458Z,45.00
2022-08-01T12:23:32.446Z,45.00
2022-08-01T12:24:32.419Z,45.00
2022-08-01T12:25:32.398Z,45.00
2022-08-01T12:26:32.470Z,45.00
2022-08-01T12:27:32.419Z,45.00
2022-08-01T12:28:32.343Z,45.00
2022-08-01T12:29:32.323Z,45.00
2022-08-01T12:30:32.305Z,45.00
2022-08-01T12:31:32.286Z,45.00
2022-08-01T12:32:35.675Z,45.00
2022-08-01T12:33:35.056Z,50.63
2022-08-01T12:34:32.232Z,50.63
2022-08-01T12:35:32.211Z,45.00
2022-08-01T12:36:32.196Z,45.00
2022-08-01T12:37:32.180Z,45.00
2022-08-01T12:38:32.162Z,45.00
2022-08-01T12:39:32.139Z,50.63
2022-08-01T12:40:32.122Z,50.63
2022-08-01T12:41:32.105Z,45.00
2022-08-01T12:42:32.085Z,45.00
2022-08-01T12:43:32.067Z,45.00
2022-08-01T12:44:32.051Z,45.00
2022-08-01T12:45:32.029Z,45.00
2022-08-01T12:46:32.015Z,45.00
2022-08-01T12:47:31.996Z,45.00
2022-08-01T12:48:32.005Z,45.00
2022-08-01T12:49:32.147Z,45.00
2022-08-01T12:50:31.946Z,45.00
2022-08-01T12:51:31.919Z,39.38
2022-08-01T12:52:31.906Z,39.38
2022-08-01T12:53:40.970Z,39.38
2022-08-01T12:54:31.868Z,39.38
2022-08-01T12:55:34.586Z,39.38
2022-08-01T12:56:31.840Z,39.38
2022-08-01T12:57:31.813Z,39.38
2022-08-01T12:58:31.795Z,39.38
2022-08-01T12:59:31.777Z,39.38
2022-08-01T13:00:31.762Z,39.38
2022-08-01T13:01:31.834Z,39.38
2022-08-01T13:02:31.721Z,39.38
2022-08-01T13:03:31.705Z,39.38
2022-08-01T13:04:31.694Z,39.38
2022-08-01T13:05:31.667Z,45.00
2022-08-01T13:06:31.662Z,45.00
2022-08-01T13:07:38.449Z,45.00
2022-08-01T13:08:31.616Z,45.00